sensor_id;sensor_type;location;lat;lon;timestamp;pressure;altitude;pressure_sealevel;temperature;humidity
19676;BME280;39539;52.202;9.876;2024-02-28T00:00:17;101080.31;;;3.70;100.00
19676;BME280;39539;52.202;9.876;2024-02-28T00:02:46;101086.47;;;3.61;100.00
19676;BME280;39539;52.202;9.876;2024-02-28T00:05:42;101081.63;;;3.48;100.00
19676;BME280;39539;52.202;9.876;2024-02-28T00:08:09;101077.53;;;3.36;100.00
19676;BME280;39539;52.202;9.876;2024-02-28T00:10:36;101081.75;;;3.29;100.00
19676;BME280;39539;52.202;9.876;2024-02-28T00:13:26;101069.88;;;3.25;100.00
19676;BME280;39539;52.202;9.876;2024-02-28T00:15:51;101076.63;;;3.09;100.00
19676;BME280;39539;52.202;9.876;2024-02-28T00:18:36;101086.63;;;2.96;100.00
19676;BME280;39539;52.202;9.876;2024-02-28T00:21:03;101075.94;;;2.80;100.00
19676;BME280;39539;52.202;9.876;2024-02-28T00:23:30;101077.81;;;2.69;100.00
19676;BME280;39539;52.202;9.876;2024-02-28T00:25:56;101083.25;;;2.58;100.00
19676;BME280;39539;52.202;9.876;2024-02-28T00:28:34;101092.06;;;2.57;100.00
19676;BME280;39539;52.202;9.876;2024-02-28T00:31:02;101094.03;;;2.55;100.00
19676;BME280;39539;52.202;9.876;2024-02-28T00:33:31;101071.44;;;2.35;100.00
19676;BME280;39539;52.202;9.876;2024-02-28T00:35:59;101091.19;;;2.39;100.00
19676;BME280;39539;52.202;9.876;2024-02-28T00:38:30;101104.56;;;2.36;100.00
19676;BME280;39539;52.202;9.876;2024-02-28T00:41:08;101097.94;;;2.32;100.00
19676;BME280;39539;52.202;9.876;2024-02-28T00:43:35;101112.84;;;2.41;100.00
19676;BME280;39539;52.202;9.876;2024-02-28T00:46:03;101111.63;;;2.35;100.00
19676;BME280;39539;52.202;9.876;2024-02-28T00:48:35;101119.47;;;2.45;100.00
19676;BME280;39539;52.202;9.876;2024-02-28T00:51:00;101114.03;;;2.56;100.00
19676;BME280;39539;52.202;9.876;2024-02-28T00:53:28;101122.72;;;2.66;100.00
19676;BME280;39539;52.202;9.876;2024-02-28T00:56:06;101116.19;;;2.70;100.00
19676;BME280;39539;52.202;9.876;2024-02-28T00:58:34;101115.78;;;2.65;100.00
19676;BME280;39539;52.202;9.876;2024-02-28T01:01:02;101109.03;;;2.63;100.00
19676;BME280;39539;52.202;9.876;2024-02-28T01:03:58;101114.44;;;2.61;100.00
19676;BME280;39539;52.202;9.876;2024-02-28T01:06:37;101111.41;;;2.56;100.00
19676;BME280;39539;52.202;9.876;2024-02-28T01:09:06;101102.06;;;2.44;100.00
19676;BME280;39539;52.202;9.876;2024-02-28T01:11:33;101102.66;;;2.38;100.00
19676;BME280;39539;52.202;9.876;2024-02-28T01:14:07;101094.25;;;2.24;100.00
19676;BME280;39539;52.202;9.876;2024-02-28T01:16:33;101096.75;;;2.16;100.00
19676;BME280;39539;52.202;9.876;2024-02-28T01:19:01;101090.84;;;1.95;100.00
19676;BME280;39539;52.202;9.876;2024-02-28T01:21:31;101118.88;;;2.04;100.00
19676;BME280;39539;52.202;9.876;2024-02-28T01:23:56;101113.63;;;2.04;100.00
19676;BME280;39539;52.202;9.876;2024-02-28T01:26:22;101109.31;;;2.03;100.00
19676;BME280;39539;52.202;9.876;2024-02-28T01:28:57;101115.09;;;2.16;100.00
19676;BME280;39539;52.202;9.876;2024-02-28T01:31:22;101112.06;;;2.21;100.00
19676;BME280;39539;52.202;9.876;2024-02-28T01:34:06;101103.34;;;2.20;100.00
19676;BME280;39539;52.202;9.876;2024-02-28T01:36:32;101108.22;;;2.15;100.00
19676;BME280;39539;52.202;9.876;2024-02-28T01:39:00;101108.75;;;2.09;100.00
19676;BME280;39539;52.202;9.876;2024-02-28T01:41:52;101111.81;;;1.95;100.00
19676;BME280;39539;52.202;9.876;2024-02-28T01:44:30;101112.69;;;1.76;100.00
19676;BME280;39539;52.202;9.876;2024-02-28T01:47:11;101107.41;;;1.66;100.00
19676;BME280;39539;52.202;9.876;2024-02-28T01:49:42;101112.25;;;1.71;100.00
19676;BME280;39539;52.202;9.876;2024-02-28T01:52:10;101114.44;;;1.75;100.00
19676;BME280;39539;52.202;9.876;2024-02-28T01:54:41;101109.91;;;1.77;100.00
19676;BME280;39539;52.202;9.876;2024-02-28T01:57:25;101113.63;;;1.85;100.00
19676;BME280;39539;52.202;9.876;2024-02-28T01:59:58;101096.41;;;1.82;100.00
19676;BME280;39539;52.202;9.876;2024-02-28T02:02:43;101109.75;;;1.89;100.00
19676;BME280;39539;52.202;9.876;2024-02-28T02:05:21;101115.13;;;1.97;100.00
19676;BME280;39539;52.202;9.876;2024-02-28T02:07:59;101112.66;;;1.95;100.00
19676;BME280;39539;52.202;9.876;2024-02-28T02:10:35;101112.91;;;1.92;100.00
19676;BME280;39539;52.202;9.876;2024-02-28T02:13:16;101111.56;;;1.88;100.00
19676;BME280;39539;52.202;9.876;2024-02-28T02:15:42;101108.81;;;1.90;100.00
19676;BME280;39539;52.202;9.876;2024-02-28T02:18:07;101114.31;;;1.87;100.00
19676;BME280;39539;52.202;9.876;2024-02-28T02:20:58;101117.50;;;1.90;100.00
19676;BME280;39539;52.202;9.876;2024-02-28T02:23:30;101121.22;;;1.88;100.00
19676;BME280;39539;52.202;9.876;2024-02-28T02:25:55;101112.13;;;1.82;100.00
19676;BME280;39539;52.202;9.876;2024-02-28T02:28:22;101115.97;;;1.88;100.00
19676;BME280;39539;52.202;9.876;2024-02-28T02:31:08;101120.94;;;1.91;100.00
19676;BME280;39539;52.202;9.876;2024-02-28T02:33:36;101116.94;;;1.87;100.00
19676;BME280;39539;52.202;9.876;2024-02-28T02:36:03;101103.81;;;1.87;100.00
19676;BME280;39539;52.202;9.876;2024-02-28T02:38:34;101111.53;;;1.98;100.00
19676;BME280;39539;52.202;9.876;2024-02-28T02:40:59;101112.38;;;1.98;100.00
19676;BME280;39539;52.202;9.876;2024-02-28T02:43:34;101110.44;;;1.91;100.00
19676;BME280;39539;52.202;9.876;2024-02-28T02:45:59;101091.03;;;1.74;100.00
19676;BME280;39539;52.202;9.876;2024-02-28T02:48:26;101112.94;;;1.83;100.00
19676;BME280;39539;52.202;9.876;2024-02-28T02:50:51;101097.75;;;1.67;100.00
19676;BME280;39539;52.202;9.876;2024-02-28T02:53:17;101123.00;;;1.77;100.00
19676;BME280;39539;52.202;9.876;2024-02-28T02:55:42;101111.81;;;1.75;100.00
19676;BME280;39539;52.202;9.876;2024-02-28T02:58:09;101100.81;;;1.62;100.00
19676;BME280;39539;52.202;9.876;2024-02-28T03:00:47;101101.22;;;1.57;100.00
19676;BME280;39539;52.202;9.876;2024-02-28T03:03:13;101098.75;;;1.56;100.00
19676;BME280;39539;52.202;9.876;2024-02-28T03:05:40;101104.13;;;1.54;100.00
19676;BME280;39539;52.202;9.876;2024-02-28T03:08:05;101111.66;;;1.38;100.00
19676;BME280;39539;52.202;9.876;2024-02-28T03:10:31;101091.50;;;1.09;100.00
19676;BME280;39539;52.202;9.876;2024-02-28T03:12:59;101093.16;;;1.01;100.00
19676;BME280;39539;52.202;9.876;2024-02-28T03:15:27;101101.00;;;1.01;100.00
19676;BME280;39539;52.202;9.876;2024-02-28T03:17:55;101103.19;;;0.96;100.00
19676;BME280;39539;52.202;9.876;2024-02-28T03:20:30;101087.03;;;0.90;100.00
19676;BME280;39539;52.202;9.876;2024-02-28T03:22:55;101096.84;;;0.88;100.00
19676;BME280;39539;52.202;9.876;2024-02-28T03:25:30;101087.41;;;0.76;100.00
19676;BME280;39539;52.202;9.876;2024-02-28T03:27:59;101112.19;;;0.72;100.00
19676;BME280;39539;52.202;9.876;2024-02-28T03:30:26;101100.59;;;0.65;100.00
19676;BME280;39539;52.202;9.876;2024-02-28T03:32:51;101099.75;;;0.55;100.00
19676;BME280;39539;52.202;9.876;2024-02-28T03:35:22;101101.22;;;0.48;100.00
19676;BME280;39539;52.202;9.876;2024-02-28T03:37:50;101115.97;;;0.49;100.00
19676;BME280;39539;52.202;9.876;2024-02-28T03:40:18;101121.13;;;0.39;100.00
19676;BME280;39539;52.202;9.876;2024-02-28T03:42:44;101123.81;;;0.28;100.00
19676;BME280;39539;52.202;9.876;2024-02-28T03:45:09;101144.91;;;0.36;100.00
19676;BME280;39539;52.202;9.876;2024-02-28T03:47:34;101146.31;;;0.19;100.00
19676;BME280;39539;52.202;9.876;2024-02-28T03:50:00;101153.91;;;0.22;100.00
19676;BME280;39539;52.202;9.876;2024-02-28T03:52:27;101157.91;;;0.05;100.00
19676;BME280;39539;52.202;9.876;2024-02-28T03:54:54;101162.88;;;-0.13;100.00
19676;BME280;39539;52.202;9.876;2024-02-28T03:57:19;101137.66;;;-0.35;100.00
19676;BME280;39539;52.202;9.876;2024-02-28T03:59:48;101140.56;;;-0.49;100.00
19676;BME280;39539;52.202;9.876;2024-02-28T04:02:13;101146.59;;;-0.49;100.00
19676;BME280;39539;52.202;9.876;2024-02-28T04:04:39;101165.56;;;-0.35;100.00
19676;BME280;39539;52.202;9.876;2024-02-28T04:07:05;101159.88;;;-0.40;100.00
19676;BME280;39539;52.202;9.876;2024-02-28T04:09:32;101152.78;;;-0.50;100.00
19676;BME280;39539;52.202;9.876;2024-02-28T04:11:57;101179.69;;;-0.38;100.00
19676;BME280;39539;52.202;9.876;2024-02-28T04:14:28;101160.38;;;-0.47;100.00
19676;BME280;39539;52.202;9.876;2024-02-28T04:16:56;101157.06;;;-0.60;100.00
19676;BME280;39539;52.202;9.876;2024-02-28T04:19:34;101187.91;;;-0.42;100.00
19676;BME280;39539;52.202;9.876;2024-02-28T04:22:04;101187.78;;;-0.41;100.00
19676;BME280;39539;52.202;9.876;2024-02-28T04:24:32;101180.75;;;-0.40;100.00
19676;BME280;39539;52.202;9.876;2024-02-28T04:26:58;101199.50;;;-0.35;100.00
19676;BME280;39539;52.202;9.876;2024-02-28T04:29:25;101193.78;;;-0.29;100.00
19676;BME280;39539;52.202;9.876;2024-02-28T04:31:50;101191.44;;;-0.32;100.00
19676;BME280;39539;52.202;9.876;2024-02-28T04:34:17;101208.38;;;-0.27;100.00
19676;BME280;39539;52.202;9.876;2024-02-28T04:36:42;101193.13;;;-0.42;100.00
19676;BME280;39539;52.202;9.876;2024-02-28T04:39:07;101205.81;;;-0.38;100.00
19676;BME280;39539;52.202;9.876;2024-02-28T04:41:33;101211.13;;;-0.28;100.00
19676;BME280;39539;52.202;9.876;2024-02-28T04:43:59;101187.16;;;-0.33;100.00
19676;BME280;39539;52.202;9.876;2024-02-28T04:46:25;101192.16;;;-0.30;100.00
19676;BME280;39539;52.202;9.876;2024-02-28T04:48:52;101189.06;;;-0.35;100.00
19676;BME280;39539;52.202;9.876;2024-02-28T04:51:17;101214.06;;;-0.21;100.00
19676;BME280;39539;52.202;9.876;2024-02-28T04:53:43;101217.25;;;-0.18;100.00
19676;BME280;39539;52.202;9.876;2024-02-28T04:56:11;101218.72;;;-0.25;100.00
19676;BME280;39539;52.202;9.876;2024-02-28T04:58:37;101216.56;;;-0.31;100.00
19676;BME280;39539;52.202;9.876;2024-02-28T05:01:22;101230.09;;;-0.26;100.00
19676;BME280;39539;52.202;9.876;2024-02-28T05:03:48;101230.34;;;-0.29;100.00
19676;BME280;39539;52.202;9.876;2024-02-28T05:06:14;101231.09;;;-0.38;100.00
19676;BME280;39539;52.202;9.876;2024-02-28T05:12:02;101233.00;;;-0.40;100.00
19676;BME280;39539;52.202;9.876;2024-02-28T05:14:28;101230.03;;;-0.47;100.00
19676;BME280;39539;52.202;9.876;2024-02-28T05:16:54;101235.03;;;-0.44;100.00
19676;BME280;39539;52.202;9.876;2024-02-28T05:19:24;101240.97;;;-0.42;100.00
19676;BME280;39539;52.202;9.876;2024-02-28T05:21:50;101231.84;;;-0.48;100.00
19676;BME280;39539;52.202;9.876;2024-02-28T05:24:15;101257.22;;;-0.38;100.00
19676;BME280;39539;52.202;9.876;2024-02-28T05:26:40;101258.16;;;-0.39;100.00
19676;BME280;39539;52.202;9.876;2024-02-28T05:29:07;101257.13;;;-0.48;100.00
19676;BME280;39539;52.202;9.876;2024-02-28T05:31:33;101260.81;;;-0.62;100.00
19676;BME280;39539;52.202;9.876;2024-02-28T05:34:15;101273.72;;;-0.60;100.00
19676;BME280;39539;52.202;9.876;2024-02-28T05:36:44;101267.31;;;-0.79;100.00
19676;BME280;39539;52.202;9.876;2024-02-28T05:39:11;101269.56;;;-0.74;100.00
19676;BME280;39539;52.202;9.876;2024-02-28T05:41:36;101259.34;;;-0.88;100.00
19676;BME280;39539;52.202;9.876;2024-02-28T05:44:02;101265.06;;;-0.83;100.00
19676;BME280;39539;52.202;9.876;2024-02-28T05:46:42;101275.97;;;-0.78;100.00
19676;BME280;39539;52.202;9.876;2024-02-28T05:49:08;101281.69;;;-0.73;100.00
19676;BME280;39539;52.202;9.876;2024-02-28T05:51:33;101277.16;;;-0.71;100.00
19676;BME280;39539;52.202;9.876;2024-02-28T05:53:59;101279.75;;;-0.60;100.00
19676;BME280;39539;52.202;9.876;2024-02-28T05:56:25;101282.03;;;-0.66;100.00
19676;BME280;39539;52.202;9.876;2024-02-28T05:58:53;101272.91;;;-0.61;100.00
19676;BME280;39539;52.202;9.876;2024-02-28T06:01:19;101292.38;;;-0.42;100.00
19676;BME280;39539;52.202;9.876;2024-02-28T06:03:54;101293.78;;;-0.38;100.00
19676;BME280;39539;52.202;9.876;2024-02-28T06:06:32;101312.28;;;-0.30;100.00
19676;BME280;39539;52.202;9.876;2024-02-28T06:08:58;101318.22;;;-0.17;100.00
19676;BME280;39539;52.202;9.876;2024-02-28T06:11:23;101304.44;;;-0.19;100.00
19676;BME280;39539;52.202;9.876;2024-02-28T06:13:58;101304.41;;;-0.08;100.00
19676;BME280;39539;52.202;9.876;2024-02-28T06:16:26;101333.94;;;0.15;100.00
19676;BME280;39539;52.202;9.876;2024-02-28T06:18:53;101340.22;;;0.24;100.00
19676;BME280;39539;52.202;9.876;2024-02-28T06:21:21;101325.78;;;0.09;100.00
19676;BME280;39539;52.202;9.876;2024-02-28T06:23:52;101353.53;;;0.21;100.00
19676;BME280;39539;52.202;9.876;2024-02-28T06:26:19;101336.88;;;0.22;100.00
19676;BME280;39539;52.202;9.876;2024-02-28T06:28:50;101328.78;;;0.25;100.00
19676;BME280;39539;52.202;9.876;2024-02-28T06:31:16;101344.41;;;0.48;100.00
19676;BME280;39539;52.202;9.876;2024-02-28T06:33:45;101348.00;;;0.47;100.00
19676;BME280;39539;52.202;9.876;2024-02-28T06:36:12;101354.38;;;0.54;100.00
19676;BME280;39539;52.202;9.876;2024-02-28T06:38:41;101362.00;;;0.57;100.00
19676;BME280;39539;52.202;9.876;2024-02-28T06:41:12;101355.53;;;0.61;100.00
19676;BME280;39539;52.202;9.876;2024-02-28T06:43:50;101366.69;;;0.74;100.00
19676;BME280;39539;52.202;9.876;2024-02-28T06:46:17;101364.69;;;0.87;100.00
19676;BME280;39539;52.202;9.876;2024-02-28T06:49:03;101366.84;;;0.94;100.00
19676;BME280;39539;52.202;9.876;2024-02-28T06:51:29;101363.25;;;0.95;100.00
19676;BME280;39539;52.202;9.876;2024-02-28T06:53:54;101360.81;;;1.03;100.00
19676;BME280;39539;52.202;9.876;2024-02-28T06:56:20;101360.75;;;1.14;100.00
19676;BME280;39539;52.202;9.876;2024-02-28T06:58:45;101358.59;;;1.19;100.00
19676;BME280;39539;52.202;9.876;2024-02-28T07:01:11;101360.50;;;1.17;100.00
19676;BME280;39539;52.202;9.876;2024-02-28T07:03:39;101361.25;;;1.29;100.00
19676;BME280;39539;52.202;9.876;2024-02-28T07:06:05;101363.97;;;1.48;100.00
19676;BME280;39539;52.202;9.876;2024-02-28T07:08:32;101364.72;;;1.60;100.00
19676;BME280;39539;52.202;9.876;2024-02-28T07:10:57;101373.19;;;1.73;100.00
19676;BME280;39539;52.202;9.876;2024-02-28T07:13:23;101364.81;;;1.79;100.00
19676;BME280;39539;52.202;9.876;2024-02-28T07:15:49;101369.81;;;1.92;100.00
19676;BME280;39539;52.202;9.876;2024-02-28T07:18:14;101363.47;;;1.95;100.00
19676;BME280;39539;52.202;9.876;2024-02-28T07:20:40;101370.34;;;1.86;100.00
19676;BME280;39539;52.202;9.876;2024-02-28T07:23:07;101362.91;;;1.82;100.00
19676;BME280;39539;52.202;9.876;2024-02-28T07:28:43;101383.66;;;2.04;100.00
19676;BME280;39539;52.202;9.876;2024-02-28T07:31:29;101394.63;;;2.29;100.00
19676;BME280;39539;52.202;9.876;2024-02-28T07:33:55;101394.88;;;2.25;100.00
19676;BME280;39539;52.202;9.876;2024-02-28T07:36:26;101397.97;;;2.60;100.00
19676;BME280;39539;52.202;9.876;2024-02-28T07:39:13;101404.09;;;2.89;100.00
19676;BME280;39539;52.202;9.876;2024-02-28T07:41:39;101383.91;;;2.90;100.00
19676;BME280;39539;52.202;9.876;2024-02-28T07:44:08;101364.53;;;2.91;100.00
19676;BME280;39539;52.202;9.876;2024-02-28T07:46:35;101388.84;;;3.22;100.00
19676;BME280;39539;52.202;9.876;2024-02-28T07:49:01;101392.72;;;3.18;100.00
19676;BME280;39539;52.202;9.876;2024-02-28T07:51:27;101371.28;;;3.23;100.00
19676;BME280;39539;52.202;9.876;2024-02-28T07:53:53;101377.34;;;3.33;100.00
19676;BME280;39539;52.202;9.876;2024-02-28T07:56:19;101367.94;;;3.40;100.00
19676;BME280;39539;52.202;9.876;2024-02-28T07:58:50;101390.44;;;3.52;100.00
19676;BME280;39539;52.202;9.876;2024-02-28T08:01:16;101373.69;;;3.53;100.00
19676;BME280;39539;52.202;9.876;2024-02-28T08:03:43;101384.34;;;3.89;100.00
19676;BME280;39539;52.202;9.876;2024-02-28T08:06:10;101376.66;;;4.05;100.00
19676;BME280;39539;52.202;9.876;2024-02-28T08:08:37;101391.63;;;4.50;100.00
19676;BME280;39539;52.202;9.876;2024-02-28T08:11:05;101400.63;;;4.02;100.00
19676;BME280;39539;52.202;9.876;2024-02-28T08:13:43;101388.41;;;4.11;100.00
19676;BME280;39539;52.202;9.876;2024-02-28T08:16:24;101391.38;;;4.26;100.00
19676;BME280;39539;52.202;9.876;2024-02-28T08:18:51;101377.81;;;4.21;100.00
19676;BME280;39539;52.202;9.876;2024-02-28T08:21:22;101390.06;;;4.30;100.00
19676;BME280;39539;52.202;9.876;2024-02-28T08:23:56;101404.88;;;4.59;100.00
19676;BME280;39539;52.202;9.876;2024-02-28T08:26:24;101404.72;;;4.78;100.00
19676;BME280;39539;52.202;9.876;2024-02-28T08:28:50;101391.94;;;4.65;100.00
19676;BME280;39539;52.202;9.876;2024-02-28T08:31:16;101386.13;;;4.44;100.00
19676;BME280;39539;52.202;9.876;2024-02-28T08:33:44;101405.84;;;4.58;100.00
19676;BME280;39539;52.202;9.876;2024-02-28T08:36:15;101408.72;;;4.64;100.00
19676;BME280;39539;52.202;9.876;2024-02-28T08:38:41;101412.69;;;4.68;100.00
19676;BME280;39539;52.202;9.876;2024-02-28T08:41:07;101397.34;;;4.64;100.00
19676;BME280;39539;52.202;9.876;2024-02-28T08:43:37;101383.00;;;4.76;100.00
19676;BME280;39539;52.202;9.876;2024-02-28T08:46:03;101407.44;;;5.04;100.00
19676;BME280;39539;52.202;9.876;2024-02-28T08:48:29;101399.72;;;5.11;100.00
19676;BME280;39539;52.202;9.876;2024-02-28T08:50:54;101404.75;;;5.22;100.00
19676;BME280;39539;52.202;9.876;2024-02-28T08:53:21;101405.50;;;5.32;100.00
19676;BME280;39539;52.202;9.876;2024-02-28T08:55:49;101401.31;;;5.48;100.00
19676;BME280;39539;52.202;9.876;2024-02-28T08:58:30;101382.16;;;5.98;100.00
19676;BME280;39539;52.202;9.876;2024-02-28T09:00:58;101390.06;;;6.48;97.45
19676;BME280;39539;52.202;9.876;2024-02-28T09:03:25;101388.94;;;6.75;94.21
19676;BME280;39539;52.202;9.876;2024-02-28T09:05:50;101395.03;;;6.68;93.46
19676;BME280;39539;52.202;9.876;2024-02-28T09:08:28;101400.50;;;6.83;92.37
19676;BME280;39539;52.202;9.876;2024-02-28T09:10:53;101395.22;;;6.99;91.25
19676;BME280;39539;52.202;9.876;2024-02-28T09:13:19;101390.09;;;7.22;89.38
19676;BME280;39539;52.202;9.876;2024-02-28T09:15:48;101397.50;;;7.35;88.52
19676;BME280;39539;52.202;9.876;2024-02-28T09:18:13;101396.03;;;7.32;89.35
19676;BME280;39539;52.202;9.876;2024-02-28T09:20:39;101389.25;;;7.22;87.46
19676;BME280;39539;52.202;9.876;2024-02-28T09:23:04;101375.91;;;6.82;89.74
19676;BME280;39539;52.202;9.876;2024-02-28T09:25:31;101384.63;;;6.58;91.34
19676;BME280;39539;52.202;9.876;2024-02-28T09:27:57;101387.63;;;6.71;91.03
19676;BME280;39539;52.202;9.876;2024-02-28T09:30:37;101384.84;;;6.22;94.53
19676;BME280;39539;52.202;9.876;2024-02-28T09:33:12;101379.19;;;6.01;96.48
19676;BME280;39539;52.202;9.876;2024-02-28T09:35:38;101396.88;;;5.82;98.59
19676;BME280;39539;52.202;9.876;2024-02-28T09:38:13;101386.88;;;5.86;100.00
19676;BME280;39539;52.202;9.876;2024-02-28T09:40:47;101390.00;;;5.90;99.16
19676;BME280;39539;52.202;9.876;2024-02-28T09:43:26;101371.34;;;5.91;99.94
19676;BME280;39539;52.202;9.876;2024-02-28T09:45:59;101378.06;;;5.77;100.00
19676;BME280;39539;52.202;9.876;2024-02-28T09:48:27;101377.63;;;5.90;99.74
19676;BME280;39539;52.202;9.876;2024-02-28T09:50:54;101389.16;;;6.15;99.53
19676;BME280;39539;52.202;9.876;2024-02-28T09:53:24;101376.75;;;6.16;99.23
19676;BME280;39539;52.202;9.876;2024-02-28T09:55:50;101396.53;;;6.79;97.64
19676;BME280;39539;52.202;9.876;2024-02-28T09:58:18;101397.22;;;7.13;94.81
19676;BME280;39539;52.202;9.876;2024-02-28T10:00:48;101389.91;;;7.48;90.13
19676;BME280;39539;52.202;9.876;2024-02-28T10:03:17;101402.38;;;7.79;89.11
19676;BME280;39539;52.202;9.876;2024-02-28T10:05:47;101393.50;;;8.03;86.20
19676;BME280;39539;52.202;9.876;2024-02-28T10:08:13;101383.66;;;7.80;87.11
19676;BME280;39539;52.202;9.876;2024-02-28T10:10:49;101367.75;;;7.41;86.68
19676;BME280;39539;52.202;9.876;2024-02-28T10:13:20;101374.84;;;7.49;88.47
19676;BME280;39539;52.202;9.876;2024-02-28T10:15:48;101403.75;;;8.06;86.98
19676;BME280;39539;52.202;9.876;2024-02-28T10:18:15;101401.03;;;8.22;86.28
19676;BME280;39539;52.202;9.876;2024-02-28T10:20:42;101406.09;;;8.40;85.74
19676;BME280;39539;52.202;9.876;2024-02-28T10:23:09;101411.88;;;8.75;83.85
19676;BME280;39539;52.202;9.876;2024-02-28T10:25:47;101394.97;;;8.14;84.89
19676;BME280;39539;52.202;9.876;2024-02-28T10:28:14;101405.84;;;8.27;86.74
19676;BME280;39539;52.202;9.876;2024-02-28T10:30:44;101402.72;;;8.15;86.39
19676;BME280;39539;52.202;9.876;2024-02-28T10:33:14;101404.44;;;8.00;86.19
19676;BME280;39539;52.202;9.876;2024-02-28T10:35:41;101402.38;;;7.79;89.05
19676;BME280;39539;52.202;9.876;2024-02-28T10:38:19;101407.16;;;7.75;89.48
19676;BME280;39539;52.202;9.876;2024-02-28T10:40:45;101404.84;;;7.80;88.16
19676;BME280;39539;52.202;9.876;2024-02-28T10:43:12;101410.00;;;7.74;87.25
19676;BME280;39539;52.202;9.876;2024-02-28T10:45:43;101410.09;;;7.97;88.15
19676;BME280;39539;52.202;9.876;2024-02-28T10:48:15;101412.91;;;7.95;88.15
19676;BME280;39539;52.202;9.876;2024-02-28T10:50:50;101416.16;;;8.14;88.13
19676;BME280;39539;52.202;9.876;2024-02-28T10:53:28;101410.44;;;8.33;85.91
19676;BME280;39539;52.202;9.876;2024-02-28T10:56:03;101404.41;;;8.47;84.84
19676;BME280;39539;52.202;9.876;2024-02-28T10:58:51;101403.09;;;8.43;85.25
19676;BME280;39539;52.202;9.876;2024-02-28T11:01:21;101396.47;;;8.47;86.67
19676;BME280;39539;52.202;9.876;2024-02-28T11:03:49;101388.13;;;8.59;85.68
19676;BME280;39539;52.202;9.876;2024-02-28T11:06:20;101392.25;;;8.84;84.06
19676;BME280;39539;52.202;9.876;2024-02-28T11:08:49;101382.06;;;8.73;83.16
19676;BME280;39539;52.202;9.876;2024-02-28T11:11:46;101382.34;;;8.78;83.90
19676;BME280;39539;52.202;9.876;2024-02-28T11:14:15;101379.03;;;8.22;82.70
19676;BME280;39539;52.202;9.876;2024-02-28T11:16:46;101381.53;;;8.15;85.45
19676;BME280;39539;52.202;9.876;2024-02-28T11:19:21;101373.34;;;8.02;87.80
19676;BME280;39539;52.202;9.876;2024-02-28T11:21:54;101370.34;;;8.05;87.35
19676;BME280;39539;52.202;9.876;2024-02-28T11:24:32;101370.94;;;8.15;88.08
19676;BME280;39539;52.202;9.876;2024-02-28T11:26:58;101375.72;;;8.20;86.63
19676;BME280;39539;52.202;9.876;2024-02-28T11:29:28;101368.53;;;8.37;86.27
19676;BME280;39539;52.202;9.876;2024-02-28T11:31:54;101363.88;;;8.07;88.10
19676;BME280;39539;52.202;9.876;2024-02-28T11:34:20;101355.41;;;8.12;87.76
19676;BME280;39539;52.202;9.876;2024-02-28T11:36:50;101340.13;;;7.91;87.26
19676;BME280;39539;52.202;9.876;2024-02-28T11:39:16;101348.69;;;8.01;86.55
19676;BME280;39539;52.202;9.876;2024-02-28T11:41:43;101354.78;;;8.10;88.01
19676;BME280;39539;52.202;9.876;2024-02-28T11:44:18;101363.66;;;8.17;88.88
19676;BME280;39539;52.202;9.876;2024-02-28T11:46:45;101366.66;;;8.45;88.45
19676;BME280;39539;52.202;9.876;2024-02-28T11:49:13;101357.81;;;8.30;89.09
19676;BME280;39539;52.202;9.876;2024-02-28T11:51:40;101362.91;;;8.63;87.18
19676;BME280;39539;52.202;9.876;2024-02-28T11:54:08;101367.38;;;8.85;85.61
19676;BME280;39539;52.202;9.876;2024-02-28T11:56:37;101362.91;;;8.86;84.92
19676;BME280;39539;52.202;9.876;2024-02-28T11:59:03;101359.00;;;8.96;83.25
19676;BME280;39539;52.202;9.876;2024-02-28T12:01:37;101366.88;;;9.05;82.94
19676;BME280;39539;52.202;9.876;2024-02-28T12:04:06;101373.50;;;9.09;80.68
19676;BME280;39539;52.202;9.876;2024-02-28T12:06:34;101347.13;;;8.46;83.97
19676;BME280;39539;52.202;9.876;2024-02-28T12:08:59;101359.19;;;8.49;86.47
19676;BME280;39539;52.202;9.876;2024-02-28T12:11:31;101344.59;;;8.53;85.64
19676;BME280;39539;52.202;9.876;2024-02-28T12:13:58;101339.31;;;8.53;84.29
19676;BME280;39539;52.202;9.876;2024-02-28T12:16:25;101346.72;;;8.58;84.82
19676;BME280;39539;52.202;9.876;2024-02-28T12:18:54;101337.72;;;8.67;85.02
19676;BME280;39539;52.202;9.876;2024-02-28T12:21:20;101346.47;;;8.90;82.75
19676;BME280;39539;52.202;9.876;2024-02-28T12:23:49;101336.88;;;8.89;85.10
19676;BME280;39539;52.202;9.876;2024-02-28T12:26:18;101345.16;;;9.24;84.00
19676;BME280;39539;52.202;9.876;2024-02-28T12:28:44;101345.97;;;9.39;81.11
19676;BME280;39539;52.202;9.876;2024-02-28T12:31:10;101339.03;;;9.38;80.14
19676;BME280;39539;52.202;9.876;2024-02-28T12:33:39;101320.53;;;9.15;79.75
19676;BME280;39539;52.202;9.876;2024-02-28T12:36:05;101329.06;;;9.40;80.46
19676;BME280;39539;52.202;9.876;2024-02-28T12:38:31;101323.41;;;9.43;78.79
19676;BME280;39539;52.202;9.876;2024-02-28T12:40:57;101307.34;;;8.92;80.15
19676;BME280;39539;52.202;9.876;2024-02-28T12:43:22;101302.72;;;8.71;80.68
19676;BME280;39539;52.202;9.876;2024-02-28T12:45:48;101288.22;;;8.44;80.67
19676;BME280;39539;52.202;9.876;2024-02-28T12:48:13;101283.75;;;8.14;84.07
19676;BME280;39539;52.202;9.876;2024-02-28T12:50:39;101292.84;;;7.88;85.19
19676;BME280;39539;52.202;9.876;2024-02-28T12:53:04;101273.69;;;7.78;86.87
19676;BME280;39539;52.202;9.876;2024-02-28T12:55:31;101273.28;;;7.58;88.34
19676;BME280;39539;52.202;9.876;2024-02-28T12:58:02;101256.81;;;7.48;88.50
19676;BME280;39539;52.202;9.876;2024-02-28T13:00:31;101272.97;;;7.53;91.32
19676;BME280;39539;52.202;9.876;2024-02-28T13:02:56;101264.44;;;7.42;90.17
19676;BME280;39539;52.202;9.876;2024-02-28T13:05:22;101265.41;;;7.41;90.51
19676;BME280;39539;52.202;9.876;2024-02-28T13:07:47;101264.13;;;7.37;92.22